Quick Links (Output Below):   Max & Min Temps   /   Climate Reports   /   Zone Forecasts
River Forecasts   /   Forestry Forecasts   /   Aviation Forecasts   /   Radars   /   Features

Terminal Aerodrome Forecast (Monticello)

Pick a Site:
Arkadelphia | El Dorado | Fayetteville | Fort Smith | Harrison | Highfill | Hot Springs | Jonesboro
Little Rock | Monticello | Mountain Home | Pine Bluff | Texarkana
 Forecast 

KLLQ 191737Z 1918/2018 07005KT P6SM SCT050 SCT250
     FM200000 00000KT P6SM SCT250
     FM201400 14005KT P6SM BKN250=


 Latest METARs (Observations) 
How to Decode METARs
22Z KLLQ 192153Z AUTO 09005KT 10SM FEW060 24/10 A3012 RMK AO2 SLP199
         T02440100
         
21Z KLLQ 192053Z AUTO 31004KT 10SM CLR 24/09 A3013 RMK AO2 SLP202
         T02390094 58023
         
20Z KLLQ 191953Z AUTO 08007KT 10SM FEW055 25/10 A3015 RMK AO2 SLP209
         T02500100
         
19Z KLLQ 191853Z AUTO VRB03KT 10SM FEW055 24/09 A3018 RMK AO2 SLP218
         T02390089
         
18Z KLLQ 191753Z AUTO VRB03KT 10SM FEW049 23/09 A3020 RMK AO2 SLP223
         T02330094 10239 20100 58007
         
17Z KLLQ 191653Z AUTO VRB05KT 10SM FEW055 23/11 A3022 RMK AO2 SLP232
         T02330111
         
16Z KLLQ 191553Z AUTO 10004KT 10SM CLR 22/10 A3023 RMK AO2 SLP233
         T02220100
         
15Z KLLQ 191453Z AUTO 00000KT 10SM CLR 21/12 A3022 RMK AO2 SLP231
         T02060117 53006
         
14Z KLLQ 191353Z AUTO 00000KT 10SM CLR 17/13 A3021 RMK AO2 SLP228
         T01720128
         
13Z KLLQ 191253Z AUTO 00000KT 7SM CLR 13/11 A3021 RMK AO2 SLP228
         T01280111
         
***** Today's Observations (Above) *****


Back to Main Page
http://www.srh.noaa.gov/lzk/qfcst.php

USA.gov is the U.S. government's official web portal to all federal, state and local government web resources and services.